createdAt,value
2019-04-13T00:01:37.527Z,102514.33
2019-04-13T00:04:04.442Z,102518.27
2019-04-13T00:06:38.795Z,102515.22
2019-04-13T00:09:07.699Z,102511.70
2019-04-13T00:11:54.530Z,102513.56
2019-04-13T00:14:21.559Z,102507.10
2019-04-13T00:16:48.314Z,102510.63
2019-04-13T00:19:14.925Z,102506.89
2019-04-13T00:21:42.209Z,102509.62
2019-04-13T00:24:09.351Z,102509.55
2019-04-13T00:26:36.709Z,102498.58
2019-04-13T00:29:04.936Z,102502.13
2019-04-13T00:31:33.297Z,102501.27
2019-04-13T00:34:00.543Z,102494.71
2019-04-13T00:36:27.411Z,102497.35
2019-04-13T00:38:55.090Z,102488.52
2019-04-13T00:41:21.738Z,102494.70
2019-04-13T00:43:48.326Z,102493.03
2019-04-13T00:46:16.608Z,102492.53
2019-04-13T00:48:43.206Z,102493.91
2019-04-13T00:51:10.103Z,102488.13
2019-04-13T00:53:37.484Z,102484.22
2019-04-13T00:56:04.073Z,102486.44
2019-04-13T00:58:30.762Z,102489.95
2019-04-13T01:00:58.744Z,102484.64
2019-04-13T01:03:25.857Z,102483.84
2019-04-13T01:05:53.489Z,102483.77
2019-04-13T01:08:20.255Z,102483.72
2019-04-13T01:10:46.959Z,102486.42
2019-04-13T01:13:13.649Z,102478.02
2019-04-13T01:15:41.107Z,102478.91
2019-04-13T01:18:07.680Z,102481.58
2019-04-13T01:20:34.359Z,102476.33
2019-04-13T01:23:00.940Z,102474.52
2019-04-13T01:25:27.626Z,102472.37
2019-04-13T01:27:54.255Z,102483.72
2019-04-13T01:30:21.077Z,102475.89
2019-04-13T01:32:49.102Z,102477.17
2019-04-13T01:35:15.695Z,102482.07
2019-04-13T01:37:43.432Z,102469.72
2019-04-13T01:40:10.932Z,102472.81
2019-04-13T01:42:37.501Z,102471.13
2019-04-13T01:45:05.497Z,102469.73
2019-04-13T01:47:32.115Z,102471.92
2019-04-13T01:49:58.830Z,102468.03
2019-04-13T01:52:25.562Z,102456.55
2019-04-13T01:54:53.019Z,102460.91
2019-04-13T01:57:19.998Z,102463.11
2019-04-13T01:59:47.032Z,102459.13
2019-04-13T02:02:31.237Z,102466.64
2019-04-13T02:05:18.293Z,102468.91
2019-04-13T02:07:51.857Z,102460.84
2019-04-13T02:10:24.855Z,102463.98
2019-04-13T02:12:52.506Z,102464.36
2019-04-13T02:15:19.086Z,102463.53
2019-04-13T02:17:45.950Z,102467.53
2019-04-13T02:20:14.281Z,102459.64
2019-04-13T02:22:40.909Z,102456.55
2019-04-13T02:25:07.756Z,102459.58
2019-04-13T02:27:35.609Z,102463.12
2019-04-13T02:30:04.458Z,102456.05
2019-04-13T02:32:31.221Z,102448.48
2019-04-13T02:34:57.885Z,102454.72
2019-04-13T02:37:26.200Z,102458.27
2019-04-13T02:39:52.896Z,102463.12
2019-04-13T02:42:20.067Z,102465.30
2019-04-13T02:44:46.803Z,102463.03
2019-04-13T02:47:14.430Z,102464.78
2019-04-13T02:49:41.653Z,102463.02
2019-04-13T02:52:08.870Z,102467.44
2019-04-13T02:54:35.667Z,102466.02
2019-04-13T02:57:02.352Z,102464.22
2019-04-13T02:59:29.386Z,102470.45
2019-04-13T03:01:58.162Z,102462.05
2019-04-13T03:04:25.551Z,102460.23
2019-04-13T03:06:53.169Z,102460.31
2019-04-13T03:09:19.839Z,102457.67
2019-04-13T03:11:46.785Z,102454.57
2019-04-13T03:14:13.614Z,102455.02
2019-04-13T03:17:14.871Z,102452.38
2019-04-13T03:19:45.700Z,102454.14
2019-04-13T03:22:12.294Z,102449.28
2019-04-13T03:24:40.133Z,102452.86
2019-04-13T03:27:06.776Z,102443.61
2019-04-13T03:29:33.456Z,102455.52
2019-04-13T03:32:00.393Z,102451.05
2019-04-13T03:34:27.920Z,102449.72
2019-04-13T03:36:54.629Z,102453.67
2019-04-13T03:39:21.210Z,102445.30
2019-04-13T03:41:48.005Z,102442.20
2019-04-13T03:44:14.580Z,102448.39
2019-04-13T03:46:41.356Z,102449.71
2019-04-13T03:49:08.412Z,102451.40
2019-04-13T03:51:35.943Z,102448.83
2019-04-13T03:54:02.968Z,102450.59
2019-04-13T03:56:29.953Z,102447.58
2019-04-13T03:58:56.559Z,102450.14
2019-04-13T04:01:23.258Z,102445.31
2019-04-13T04:03:49.931Z,102445.76
2019-04-13T04:06:16.947Z,102449.28
2019-04-13T04:08:43.578Z,102445.39
2019-04-13T04:11:10.476Z,102439.66
2019-04-13T04:13:37.097Z,102445.83
2019-04-13T04:16:04.220Z,102440.96
2019-04-13T04:18:32.560Z,102442.30
2019-04-13T04:20:59.633Z,102448.03
2019-04-13T04:23:26.427Z,102444.05
2019-04-13T04:25:53.079Z,102440.97
2019-04-13T04:28:20.895Z,102445.45
2019-04-13T04:30:47.887Z,102446.27
2019-04-13T04:33:14.977Z,102446.26
2019-04-13T04:35:42.060Z,102442.74
2019-04-13T04:38:09.364Z,102439.66
2019-04-13T04:40:35.947Z,102442.66
2019-04-13T04:43:02.839Z,102445.81
2019-04-13T04:45:29.589Z,102442.73
2019-04-13T04:47:56.485Z,102445.33
2019-04-13T04:50:23.219Z,102442.28
2019-04-13T04:52:50.542Z,102441.86
2019-04-13T04:55:17.278Z,102446.64
2019-04-13T04:57:44.603Z,102447.53
2019-04-13T05:00:11.429Z,102448.02
2019-04-13T05:02:38.174Z,102445.88
2019-04-13T05:05:06.730Z,102454.23
2019-04-13T05:07:35.936Z,102447.65
2019-04-13T05:10:03.968Z,102452.14
2019-04-13T05:12:30.793Z,102452.09
2019-04-13T05:14:57.838Z,102449.50
2019-04-13T05:17:24.533Z,102445.52
2019-04-13T05:19:52.376Z,102449.03
2019-04-13T05:22:26.036Z,102450.37
2019-04-13T05:24:47.945Z,102449.91
2019-04-13T05:27:15.576Z,102451.20
2019-04-13T05:29:43.416Z,102451.70
2019-04-13T05:32:10.669Z,102446.77
2019-04-13T05:34:37.530Z,102446.77
2019-04-13T05:37:04.143Z,102448.66
2019-04-13T05:39:31.026Z,102450.42
2019-04-13T05:41:59.308Z,102450.42
2019-04-13T05:44:25.981Z,102445.17
2019-04-13T05:46:53.959Z,102440.75
2019-04-13T05:49:20.578Z,102453.95
2019-04-13T05:51:48.019Z,102452.20
2019-04-13T05:54:14.635Z,102451.30
2019-04-13T05:56:41.371Z,102453.06
2019-04-13T05:59:08.606Z,102456.61
2019-04-13T06:01:35.491Z,102457.09
2019-04-13T06:04:02.277Z,102457.48
2019-04-13T06:06:29.555Z,102461.08
2019-04-13T06:08:56.211Z,102466.82
2019-04-13T06:11:23.162Z,102460.27
2019-04-13T06:13:50.434Z,102471.68
2019-04-13T06:16:17.069Z,102465.05
2019-04-13T06:18:43.685Z,102465.94
2019-04-13T06:21:10.778Z,102466.77
2019-04-13T06:23:37.815Z,102469.87
2019-04-13T06:26:04.738Z,102471.67
2019-04-13T06:28:31.553Z,102469.47
2019-04-13T06:31:17.247Z,102462.00
2019-04-13T06:33:50.951Z,102469.58
2019-04-13T06:36:18.690Z,102463.86
2019-04-13T06:38:45.606Z,102474.50
2019-04-13T06:41:12.565Z,102469.12
2019-04-13T06:43:39.728Z,102474.42
2019-04-13T06:46:06.783Z,102475.62
2019-04-13T06:48:34.599Z,102470.47
2019-04-13T06:51:02.576Z,102470.45
2019-04-13T06:53:29.871Z,102464.16
2019-04-13T06:55:56.741Z,102462.27
2019-04-13T06:58:27.012Z,102464.85
2019-04-13T07:00:57.250Z,102467.63
2019-04-13T07:03:24.452Z,102462.92
2019-04-13T07:05:51.346Z,102462.59
2019-04-13T07:08:38.397Z,102458.41
2019-04-13T07:11:30.666Z,102456.87
2019-04-13T07:14:00.213Z,102470.41
2019-04-13T07:16:43.053Z,102472.17
2019-04-13T07:19:07.933Z,102472.17
2019-04-13T07:21:34.513Z,102472.62
2019-04-13T07:24:01.178Z,102471.30
2019-04-13T07:26:29.124Z,102467.69
2019-04-13T07:28:55.713Z,102462.23
2019-04-13T07:31:23.645Z,102456.36
2019-04-13T07:33:51.323Z,102454.52
2019-04-13T07:36:18.204Z,102460.16
2019-04-13T07:38:47.582Z,102461.02
2019-04-13T07:41:14.805Z,102468.11
2019-04-13T07:43:45.691Z,102473.94
2019-04-13T07:46:32.484Z,102478.40
2019-04-13T07:49:13.783Z,102472.61
2019-04-13T07:52:02.378Z,102467.63
2019-04-13T07:54:29.867Z,102468.91
2019-04-13T07:56:56.672Z,102465.38
2019-04-13T07:59:23.266Z,102471.75
2019-04-13T08:01:56.683Z,102476.61
2019-04-13T08:04:19.064Z,102468.11
2019-04-13T08:06:45.943Z,102481.91
2019-04-13T08:09:12.740Z,102486.84
2019-04-13T08:11:39.316Z,102470.17
2019-04-13T08:14:20.337Z,102477.09
2019-04-13T08:17:15.403Z,102477.98
2019-04-13T08:19:44.528Z,102482.45
2019-04-13T08:22:12.185Z,102476.63
2019-04-13T08:24:38.966Z,102479.40
2019-04-13T08:27:07.871Z,102482.22
2019-04-13T08:29:34.557Z,102478.92
2019-04-13T08:32:02.529Z,102484.28
2019-04-13T08:34:29.517Z,102495.06
2019-04-13T08:36:58.010Z,102492.05
2019-04-13T08:39:26.890Z,102491.14
2019-04-13T08:41:53.672Z,102488.55
2019-04-13T08:44:20.669Z,102488.10
2019-04-13T08:46:47.643Z,102488.42
2019-04-13T08:49:14.243Z,102485.09
2019-04-13T08:51:40.984Z,102481.95
2019-04-13T08:54:07.801Z,102482.69
2019-04-13T08:56:34.374Z,102484.16
2019-04-13T08:59:02.088Z,102480.25
2019-04-13T09:01:29.705Z,102480.95
2019-04-13T09:03:56.572Z,102477.67
2019-04-13T09:06:23.452Z,102478.87
2019-04-13T09:08:50.355Z,102464.53
2019-04-13T09:11:19.983Z,102468.16
2019-04-13T09:13:45.698Z,102466.66
2019-04-13T09:16:12.809Z,102467.63
2019-04-13T09:19:03.838Z,102473.69
2019-04-13T09:21:32.042Z,102465.84
2019-04-13T09:23:58.775Z,102474.34
2019-04-13T09:26:25.356Z,102471.03
2019-04-13T09:28:52.633Z,102474.89
2019-04-13T09:31:19.270Z,102464.98
2019-04-13T09:33:46.833Z,102466.10
2019-04-13T09:36:14.144Z,102460.77
2019-04-13T09:38:42.867Z,102462.42
2019-04-13T09:41:10.071Z,102468.56
2019-04-13T09:43:45.552Z,102465.67
2019-04-13T09:46:12.298Z,102456.30
2019-04-13T09:48:41.793Z,102460.67
2019-04-13T09:51:08.795Z,102451.28
2019-04-13T09:53:35.483Z,102447.70
2019-04-13T09:56:02.689Z,102455.13
2019-04-13T09:58:29.683Z,102455.20
2019-04-13T10:00:56.539Z,102448.80
2019-04-13T10:03:23.299Z,102446.99
2019-04-13T10:05:50.165Z,102448.13
2019-04-13T10:08:20.237Z,102443.69
2019-04-13T10:10:46.777Z,102442.73
2019-04-13T10:13:27.589Z,102445.66
2019-04-13T10:16:12.490Z,102442.19
2019-04-13T10:18:43.453Z,102441.08
2019-04-13T10:21:13.139Z,102437.17
2019-04-13T10:23:39.464Z,102435.35
2019-04-13T10:26:06.776Z,102429.77
2019-04-13T10:28:36.119Z,102428.92
2019-04-13T10:31:02.360Z,102435.61
2019-04-13T10:33:29.279Z,102433.12
2019-04-13T10:35:56.395Z,102433.33
2019-04-13T10:38:25.374Z,102436.51
2019-04-13T10:40:52.614Z,102441.05
2019-04-13T10:43:20.411Z,102441.28
2019-04-13T10:46:12.329Z,102443.95
2019-04-13T10:48:44.915Z,102447.49
2019-04-13T10:51:26.395Z,102450.08
2019-04-13T10:53:53.240Z,102447.94
2019-04-13T10:56:20.744Z,102442.75
2019-04-13T10:58:47.483Z,102440.55
2019-04-13T11:01:14.878Z,102449.05
2019-04-13T11:03:41.543Z,102444.01
2019-04-13T11:06:08.898Z,102437.56
2019-04-13T11:08:35.612Z,102435.94
2019-04-13T11:11:02.354Z,102433.77
2019-04-13T11:13:29.214Z,102416.34
2019-04-13T11:15:56.283Z,102420.16
2019-04-13T11:18:23.041Z,102415.34
2019-04-13T11:20:49.856Z,102411.16
2019-04-13T11:23:17.129Z,102408.89
2019-04-13T11:25:44.103Z,102395.38
2019-04-13T11:28:11.026Z,102407.66
2019-04-13T11:30:38.097Z,102396.56
2019-04-13T11:33:04.984Z,102377.77
2019-04-13T11:35:35.466Z,102378.66
2019-04-13T11:38:00.181Z,102375.89
2019-04-13T11:40:26.849Z,102372.12
2019-04-13T11:43:11.882Z,102367.73
2019-04-13T11:45:58.594Z,102372.30
2019-04-13T11:48:51.509Z,102368.99
2019-04-13T11:51:22.912Z,102366.52
2019-04-13T11:53:51.488Z,102365.91
2019-04-13T11:56:18.699Z,102364.08
2019-04-13T11:58:45.494Z,102369.92
2019-04-13T12:01:41.345Z,102364.91
2019-04-13T12:04:21.265Z,102373.23
2019-04-13T12:07:13.697Z,102368.87
2019-04-13T12:09:58.886Z,102368.76
2019-04-13T12:12:50.967Z,102385.38
2019-04-13T12:15:46.903Z,102382.08
2019-04-13T12:18:36.202Z,102378.59
2019-04-13T12:21:22.085Z,102386.22
2019-04-13T12:23:50.867Z,102389.33
2019-04-13T12:26:17.721Z,102376.95
2019-04-13T12:28:44.817Z,102371.50
2019-04-13T12:31:12.493Z,102362.94
2019-04-13T12:33:46.372Z,102348.87
2019-04-13T12:36:13.885Z,102356.22
2019-04-13T12:38:49.693Z,102347.41
2019-04-13T12:41:17.853Z,102341.44
2019-04-13T12:43:44.476Z,102332.29
2019-04-13T12:46:12.308Z,102338.56
2019-04-13T12:48:39.144Z,102336.22
2019-04-13T12:51:05.917Z,102340.47
2019-04-13T12:53:32.624Z,102342.16
2019-04-13T12:55:59.245Z,102349.79
2019-04-13T12:58:26.336Z,102339.56
2019-04-13T13:00:59.311Z,102337.25
2019-04-13T13:03:27.278Z,102344.23
2019-04-13T13:05:55.089Z,102338.13
2019-04-13T13:08:23.133Z,102343.39
2019-04-13T13:10:49.701Z,102338.64
2019-04-13T13:13:22.532Z,102341.09
2019-04-13T13:15:49.525Z,102338.20
2019-04-13T13:18:16.531Z,102341.47
2019-04-13T13:20:43.206Z,102343.09
2019-04-13T13:23:12.410Z,102339.13
2019-04-13T13:25:38.695Z,102335.87
2019-04-13T13:28:05.465Z,102336.73
2019-04-13T13:30:32.384Z,102340.01
2019-04-13T13:32:59.252Z,102353.55
2019-04-13T13:35:26.066Z,102350.25
2019-04-13T13:37:53.647Z,102345.17
2019-04-13T13:40:31.278Z,102341.00
2019-04-13T13:42:49.782Z,102340.26
2019-04-13T13:45:16.670Z,102339.84
2019-04-13T13:47:43.442Z,102339.91
2019-04-13T13:50:11.472Z,102336.13
2019-04-13T13:52:38.738Z,102328.00
2019-04-13T13:55:08.011Z,102339.95
2019-04-13T13:57:40.928Z,102333.21
2019-04-13T14:00:12.121Z,102326.41
2019-04-13T14:02:38.735Z,102320.42
2019-04-13T14:05:05.833Z,102323.59
2019-04-13T14:07:33.400Z,102326.33
2019-04-13T14:10:12.383Z,102320.38
2019-04-13T14:12:41.929Z,102320.48
2019-04-13T14:15:11.846Z,102321.18
2019-04-13T14:17:39.409Z,102315.28
2019-04-13T14:20:07.126Z,102323.35
2019-04-13T14:22:33.961Z,102317.36
2019-04-13T14:25:00.608Z,102325.94
2019-04-13T14:27:27.470Z,102313.42
2019-04-13T14:29:55.011Z,102313.91
2019-04-13T14:32:21.625Z,102319.47
2019-04-13T14:34:50.685Z,102323.38
2019-04-13T14:37:17.432Z,102326.70
2019-04-13T14:39:44.436Z,102319.84
2019-04-13T14:42:12.790Z,102325.54
2019-04-13T14:44:39.765Z,102327.59
2019-04-13T14:47:06.911Z,102322.06
2019-04-13T14:49:34.481Z,102321.37
2019-04-13T14:52:02.211Z,102317.91
2019-04-13T14:54:28.811Z,102321.26
2019-04-13T14:56:57.995Z,102314.48
2019-04-13T14:59:24.727Z,102312.48
2019-04-13T15:01:51.595Z,102315.15
2019-04-13T15:04:18.847Z,102315.15
2019-04-13T15:06:46.207Z,102319.50
2019-04-13T15:09:17.314Z,102314.27
2019-04-13T15:11:42.912Z,102326.06
2019-04-13T15:14:10.892Z,102313.73
2019-04-13T15:16:39.952Z,102321.20
2019-04-13T15:19:26.213Z,102313.77
2019-04-13T15:21:43.865Z,102322.09
2019-04-13T15:24:13.540Z,102319.59
2019-04-13T15:26:44.149Z,102320.63
2019-04-13T15:29:11.148Z,102319.44
2019-04-13T15:31:39.890Z,102319.44
2019-04-13T15:34:07.385Z,102321.09
2019-04-13T15:36:35.600Z,102315.03
2019-04-13T15:39:07.259Z,102315.63
2019-04-13T15:41:46.016Z,102317.36
2019-04-13T15:44:06.414Z,102329.34
2019-04-13T15:46:33.331Z,102323.67
2019-04-13T15:49:00.527Z,102327.08
2019-04-13T15:51:28.245Z,102316.72
2019-04-13T15:53:57.586Z,102321.55
2019-04-13T15:56:24.639Z,102315.63
2019-04-13T15:58:51.567Z,102332.08
2019-04-13T16:01:19.572Z,102333.48
2019-04-13T16:03:46.960Z,102328.53
2019-04-13T16:06:19.291Z,102331.28
2019-04-13T16:09:11.879Z,102325.02
2019-04-13T16:11:48.365Z,102328.85
2019-04-13T16:14:09.806Z,102329.92
2019-04-13T16:16:37.274Z,102328.78
2019-04-13T16:19:05.060Z,102326.09
2019-04-13T16:21:32.504Z,102322.29
2019-04-13T16:24:00.544Z,102326.16
2019-04-13T16:26:27.980Z,102330.17
2019-04-13T16:29:27.268Z,102331.14
2019-04-13T16:32:31.842Z,102335.26
2019-04-13T16:35:20.112Z,102331.92
2019-04-13T16:37:48.509Z,102335.73
2019-04-13T16:40:16.303Z,102333.39
2019-04-13T16:42:43.759Z,102337.66
2019-04-13T16:45:23.863Z,102334.68
2019-04-13T16:47:57.999Z,102335.80
2019-04-13T16:50:38.891Z,102336.50
2019-04-13T16:53:35.213Z,102331.61
2019-04-13T16:56:06.834Z,102336.50
2019-04-13T16:58:40.496Z,102337.66
2019-04-13T17:01:23.725Z,102338.95
2019-04-13T17:04:13.011Z,102341.16
2019-04-13T17:06:39.873Z,102338.61
2019-04-13T17:09:06.524Z,102335.49
2019-04-13T17:11:34.765Z,102345.53
2019-04-13T17:14:01.838Z,102348.28
2019-04-13T17:16:29.818Z,102338.98
2019-04-13T17:19:15.637Z,102343.97
2019-04-13T17:21:48.062Z,102352.88
2019-04-13T17:24:36.836Z,102345.87
2019-04-13T17:27:23.615Z,102339.25
2019-04-13T17:29:58.718Z,102344.75
2019-04-13T17:32:31.829Z,102343.41
2019-04-13T17:35:03.760Z,102337.20
2019-04-13T17:37:30.577Z,102335.93
2019-04-13T17:39:57.449Z,102341.73
2019-04-13T17:42:44.947Z,102338.16
2019-04-13T17:45:37.923Z,102337.81
2019-04-13T17:48:25.306Z,102340.92
2019-04-13T17:51:18.694Z,102338.34
2019-04-13T17:54:12.500Z,102345.89
2019-04-13T17:56:40.650Z,102342.81
2019-04-13T17:59:21.982Z,102349.94
2019-04-13T18:02:13.328Z,102350.42
2019-04-13T18:05:12.962Z,102352.16
2019-04-13T18:07:59.419Z,102357.98
2019-04-13T18:10:45.994Z,102355.75
2019-04-13T18:13:45.117Z,102369.09
2019-04-13T18:16:29.989Z,102362.02
2019-04-13T18:19:05.659Z,102369.98
2019-04-13T18:21:32.941Z,102371.81
2019-04-13T18:24:01.448Z,102375.34
2019-04-13T18:26:29.236Z,102373.60
2019-04-13T18:28:56.658Z,102376.69
2019-04-13T18:31:25.046Z,102371.42
2019-04-13T18:33:53.347Z,102376.28
2019-04-13T18:36:21.359Z,102371.41
2019-04-13T18:38:48.309Z,102379.37
2019-04-13T18:41:16.540Z,102386.90
2019-04-13T18:43:43.778Z,102384.68
2019-04-13T18:46:11.311Z,102386.00
2019-04-13T18:48:38.130Z,102394.84
2019-04-13T18:51:06.352Z,102391.70
2019-04-13T18:53:33.627Z,102394.80
2019-04-13T18:56:00.389Z,102396.56
2019-04-13T18:58:29.447Z,102397.41
2019-04-13T19:00:57.208Z,102396.58
2019-04-13T19:03:24.270Z,102398.73
2019-04-13T19:05:50.919Z,102408.07
2019-04-13T19:08:17.907Z,102400.52
2019-04-13T19:10:44.612Z,102412.03
2019-04-13T19:13:11.543Z,102407.16
2019-04-13T19:15:38.486Z,102411.56
2019-04-13T19:18:05.287Z,102410.68
2019-04-13T19:20:32.023Z,102406.70
2019-04-13T19:22:59.111Z,102416.83
2019-04-13T19:25:26.196Z,102412.86
2019-04-13T19:27:52.851Z,102412.86
2019-04-13T19:30:19.728Z,102405.75
2019-04-13T19:32:46.474Z,102411.52
2019-04-13T19:35:13.540Z,102411.45
2019-04-13T19:37:41.118Z,102409.69
2019-04-13T19:40:08.438Z,102419.48
2019-04-13T19:42:35.715Z,102423.87
2019-04-13T19:45:03.260Z,102420.77
2019-04-13T19:47:31.215Z,102424.30
2019-04-13T19:49:57.941Z,102417.66
2019-04-13T19:52:30.597Z,102421.16
2019-04-13T19:54:57.204Z,102418.02
2019-04-13T19:57:24.003Z,102422.48
2019-04-13T19:59:51.644Z,102423.80
2019-04-13T20:02:20.552Z,102421.59
2019-04-13T20:04:47.426Z,102419.40
2019-04-13T20:07:14.535Z,102426.05
2019-04-13T20:09:41.097Z,102422.48
2019-04-13T20:12:08.763Z,102421.64
2019-04-13T20:14:35.356Z,102425.66
2019-04-13T20:17:02.118Z,102422.54
2019-04-13T20:19:28.908Z,102428.31
2019-04-13T20:21:55.760Z,102426.15
2019-04-13T20:24:22.988Z,102428.78
2019-04-13T20:26:51.219Z,102425.25
2019-04-13T20:29:18.806Z,102430.56
2019-04-13T20:31:46.329Z,102424.38
2019-04-13T20:34:14.172Z,102419.09
2019-04-13T20:36:42.469Z,102426.16
2019-04-13T20:39:11.312Z,102421.31
2019-04-13T20:41:48.934Z,102426.10
2019-04-13T20:44:13.220Z,102426.13
2019-04-13T20:46:38.897Z,102423.93
2019-04-13T20:49:08.553Z,102435.02
2019-04-13T20:51:36.684Z,102434.57
2019-04-13T20:54:03.425Z,102434.13
2019-04-13T20:56:30.336Z,102430.16
2019-04-13T20:58:57.601Z,102435.88
2019-04-13T21:01:24.241Z,102438.58
2019-04-13T21:03:53.454Z,102436.34
2019-04-13T21:06:21.832Z,102432.34
2019-04-13T21:08:51.333Z,102442.11
2019-04-13T21:11:17.357Z,102433.66
2019-04-13T21:13:57.448Z,102433.70
2019-04-13T21:16:14.887Z,102440.78
2019-04-13T21:18:42.836Z,102437.23
2019-04-13T21:21:10.678Z,102437.25
2019-04-13T21:23:38.457Z,102439.92
2019-04-13T21:26:06.279Z,102435.93
2019-04-13T21:28:34.309Z,102437.27
2019-04-13T21:31:02.150Z,102436.34
2019-04-13T21:33:30.001Z,102437.71
2019-04-13T21:35:57.767Z,102432.41
2019-04-13T21:38:25.650Z,102429.73
2019-04-13T21:40:53.596Z,102426.67
2019-04-13T21:43:21.480Z,102424.92
2019-04-13T21:45:49.270Z,102428.02
2019-04-13T21:48:15.812Z,102428.45
2019-04-13T21:50:57.103Z,102431.12
2019-04-13T21:53:33.362Z,102427.59
2019-04-13T21:55:59.992Z,102430.25
2019-04-13T21:58:27.232Z,102424.94
2019-04-13T22:01:30.011Z,102428.91
2019-04-13T22:03:58.504Z,102430.70
2019-04-13T22:06:25.680Z,102424.48
2019-04-13T22:08:53.418Z,102427.17
2019-04-13T22:11:21.203Z,102424.52
2019-04-13T22:13:48.977Z,102421.87
2019-04-13T22:16:16.902Z,102424.95
2019-04-13T22:18:43.830Z,102422.73
2019-04-13T22:21:11.161Z,102427.59
2019-04-13T22:23:38.852Z,102416.98
2019-04-13T22:26:06.784Z,102421.41
2019-04-13T22:28:38.881Z,102420.08
2019-04-13T22:31:31.110Z,102419.21
2019-04-13T22:33:59.020Z,102425.83
2019-04-13T22:36:29.248Z,102425.40
2019-04-13T22:38:56.977Z,102429.37
2019-04-13T22:41:24.513Z,102429.38
2019-04-13T22:43:53.081Z,102427.17
2019-04-13T22:46:19.895Z,102431.58
2019-04-13T22:48:57.071Z,102434.24
2019-04-13T22:51:36.279Z,102427.16
2019-04-13T22:54:25.881Z,102426.72
2019-04-13T22:57:19.479Z,102432.02
2019-04-13T22:59:46.516Z,102423.61
2019-04-13T23:02:34.230Z,102435.11
2019-04-13T23:05:00.945Z,102435.52
2019-04-13T23:07:28.294Z,102433.73
2019-04-13T23:09:56.306Z,102434.16
2019-04-13T23:12:22.924Z,102431.52
2019-04-13T23:14:56.745Z,102433.65
2019-04-13T23:17:18.093Z,102431.92
2019-04-13T23:19:45.719Z,102429.31
2019-04-13T23:22:12.548Z,102429.72
2019-04-13T23:24:39.471Z,102431.52
2019-04-13T23:27:07.252Z,102434.16
2019-04-13T23:29:34.626Z,102425.33
2019-04-13T23:32:01.586Z,102431.08
2019-04-13T23:34:28.940Z,102428.00
2019-04-13T23:36:55.733Z,102431.10
2019-04-13T23:39:23.475Z,102428.42
2019-04-13T23:41:51.841Z,102427.98
2019-04-13T23:44:20.205Z,102425.80
2019-04-13T23:46:48.275Z,102428.45
2019-04-13T23:49:15.125Z,102418.73
2019-04-13T23:51:42.522Z,102426.69
2019-04-13T23:54:10.689Z,102419.17
2019-04-13T23:56:56.361Z,102423.56
2019-04-13T23:59:28.653Z,102417.38
